Noi Bai International Airport
VVNB : now visible

Airfield :











YOU CAN JOIN US ON...

 
LOGIN :

Register | Disclaimer

   EN    FR    IT 

 









Legend :    VFR   Marginal VFR   IFR   Intensive IFR   Very Intensive IFR
Visi :
Ceiling :
>= 8 km
>= 3000ft
5 to 8 km
1000 to 3000 ft
1500m to 5 km
500 to 1000 ft
800 to 1500m
200 to 500 ft
< 800m
< 200 ft
Symbols :   Thunderstorms  Fog  Heavy snow  Heavy precipitations  Wind > 20 kt







- Airport Elevation : 39 ft
- IATA code : HAN


VVNB - Noi Bai International

CURRENT METAR :
  • 161230Z 12008KT 9000 FEW017 BKN023 24/23 Q1012 NOSIG

EXPIRED METARs :
  • 161200Z 12008KT 9000 FEW017 BKN022 24/23 Q1012 NOSIG
  • 161130Z 11007KT 8000 BKN018 24/23 Q1012 NOSIG
  • 161100Z 11008KT 7000 SCT016 BKN022 24/24 Q1011 NOSIG
  • 161030Z 12010KT 9000 FEW020 BKN041 24/23 Q1011 NOSIG
  • 161000Z 13009KT 9000 FEW012 SCT032 BKN043 24/23 Q1011 NOSIG

TAF TAF VVNB
Valid from the 16 at 12:00 until the 17 at 12:00 UTC


161100Z 1612/1712 12008KT 6000 SCT010 BKN030
BECMG 1612/1614 4000 BR
TEMPO 1618/1624 2000 -RA BR SCT006 BKN012
TEMPO 1702/1709 2000 SHRA BR SCT008 BKN012 FEW023TCU
VVVV FIR / Asia



MET'MAP, your aeronautical weather chart ! - Copyright ORBIFLY December 2007 - Disclaimer

ORBIFLY MET'MAP TEAM :

Programming & Development : Alexandra Zaïnal
Concept & Development : Baudouin d'Aumeries
Co-Development & Prog : Marc-Olivier Méhu
Technical & hardware support : Manuel Goepfert

Contact : metmap@orbifly.com




SOURCES & CREDITS :

   NOAA       Earth
Advisory